sensor_id;sensor_type;location;lat;lon;timestamp;P1;P2;P0
53678;PMS5003;40119;52.030;4.708;2022-08-19T00:01:17;44;41;
53678;PMS5003;40119;52.030;4.708;2022-08-19T00:03:22;57;55;
53678;PMS5003;40119;52.030;4.708;2022-08-19T00:05:26;56;52;
53678;PMS5003;40119;52.030;4.708;2022-08-19T00:07:31;52;48;
53678;PMS5003;40119;52.030;4.708;2022-08-19T00:09:35;46;44;
53678;PMS5003;40119;52.030;4.708;2022-08-19T00:11:40;45;41;
53678;PMS5003;40119;52.030;4.708;2022-08-19T00:13:45;45;40;
53678;PMS5003;40119;52.030;4.708;2022-08-19T00:15:51;49;47;
53678;PMS5003;40119;52.030;4.708;2022-08-19T00:17:55;46;41;
53678;PMS5003;40119;52.030;4.708;2022-08-19T00:20:00;43;43;
53678;PMS5003;40119;52.030;4.708;2022-08-19T00:22:04;46;39;
53678;PMS5003;40119;52.030;4.708;2022-08-19T00:24:09;49;47;
53678;PMS5003;40119;52.030;4.708;2022-08-19T00:26:20;46;44;
53678;PMS5003;40119;52.030;4.708;2022-08-19T00:28:25;47;42;
53678;PMS5003;40119;52.030;4.708;2022-08-19T00:30:29;41;39;
53678;PMS5003;40119;52.030;4.708;2022-08-19T00:32:34;39;39;
53678;PMS5003;40119;52.030;4.708;2022-08-19T00:34:38;42;41;
53678;PMS5003;40119;52.030;4.708;2022-08-19T00:36:43;43;40;
53678;PMS5003;40119;52.030;4.708;2022-08-19T00:38:48;39;39;
53678;PMS5003;40119;52.030;4.708;2022-08-19T00:40:52;52;49;
53678;PMS5003;40119;52.030;4.708;2022-08-19T00:42:57;53;47;
53678;PMS5003;40119;52.030;4.708;2022-08-19T00:45:02;48;46;
53678;PMS5003;40119;52.030;4.708;2022-08-19T00:47:14;42;39;
53678;PMS5003;40119;52.030;4.708;2022-08-19T00:49:25;45;39;
53678;PMS5003;40119;52.030;4.708;2022-08-19T00:51:33;44;42;
53678;PMS5003;40119;52.030;4.708;2022-08-19T00:53:37;44;41;
53678;PMS5003;40119;52.030;4.708;2022-08-19T00:55:42;58;50;
53678;PMS5003;40119;52.030;4.708;2022-08-19T00:57:49;45;42;
53678;PMS5003;40119;52.030;4.708;2022-08-19T01:00:04;52;50;
53678;PMS5003;40119;52.030;4.708;2022-08-19T01:02:12;47;45;
53678;PMS5003;40119;52.030;4.708;2022-08-19T01:04:17;43;43;
53678;PMS5003;40119;52.030;4.708;2022-08-19T01:06:22;43;42;
53678;PMS5003;40119;52.030;4.708;2022-08-19T01:08:26;52;48;
53678;PMS5003;40119;52.030;4.708;2022-08-19T01:10:32;51;47;
53678;PMS5003;40119;52.030;4.708;2022-08-19T01:12:41;51;48;
53678;PMS5003;40119;52.030;4.708;2022-08-19T01:14:46;50;45;
53678;PMS5003;40119;52.030;4.708;2022-08-19T01:16:51;45;44;
53678;PMS5003;40119;52.030;4.708;2022-08-19T01:18:57;46;44;
53678;PMS5003;40119;52.030;4.708;2022-08-19T01:21:02;44;42;
53678;PMS5003;40119;52.030;4.708;2022-08-19T01:23:12;53;49;
53678;PMS5003;40119;52.030;4.708;2022-08-19T01:25:20;50;45;
53678;PMS5003;40119;52.030;4.708;2022-08-19T01:27:36;49;47;
53678;PMS5003;40119;52.030;4.708;2022-08-19T01:29:43;47;44;
53678;PMS5003;40119;52.030;4.708;2022-08-19T01:31:48;41;40;
53678;PMS5003;40119;52.030;4.708;2022-08-19T01:33:54;43;39;
53678;PMS5003;40119;52.030;4.708;2022-08-19T01:36:04;43;38;
53678;PMS5003;40119;52.030;4.708;2022-08-19T01:38:19;47;43;
53678;PMS5003;40119;52.030;4.708;2022-08-19T01:40:26;43;40;
53678;PMS5003;40119;52.030;4.708;2022-08-19T01:42:32;40;38;
53678;PMS5003;40119;52.030;4.708;2022-08-19T01:44:37;46;43;
53678;PMS5003;40119;52.030;4.708;2022-08-19T01:46:43;45;41;
53678;PMS5003;40119;52.030;4.708;2022-08-19T01:48:48;42;39;
53678;PMS5003;40119;52.030;4.708;2022-08-19T01:50:52;39;38;
53678;PMS5003;40119;52.030;4.708;2022-08-19T01:52:57;46;45;
53678;PMS5003;40119;52.030;4.708;2022-08-19T01:55:03;47;44;
53678;PMS5003;40119;52.030;4.708;2022-08-19T01:57:12;42;41;
53678;PMS5003;40119;52.030;4.708;2022-08-19T01:59:20;43;42;
53678;PMS5003;40119;52.030;4.708;2022-08-19T02:01:27;41;39;
53678;PMS5003;40119;52.030;4.708;2022-08-19T02:03:31;36;34;
53678;PMS5003;40119;52.030;4.708;2022-08-19T02:05:35;52;41;
53678;PMS5003;40119;52.030;4.708;2022-08-19T02:07:40;45;42;
53678;PMS5003;40119;52.030;4.708;2022-08-19T02:09:45;40;38;
53678;PMS5003;40119;52.030;4.708;2022-08-19T02:11:49;41;41;
53678;PMS5003;40119;52.030;4.708;2022-08-19T02:13:53;46;40;
53678;PMS5003;40119;52.030;4.708;2022-08-19T02:15:58;36;34;
53678;PMS5003;40119;52.030;4.708;2022-08-19T02:18:03;38;37;
53678;PMS5003;40119;52.030;4.708;2022-08-19T02:20:08;46;41;
53678;PMS5003;40119;52.030;4.708;2022-08-19T02:22:18;45;40;
53678;PMS5003;40119;52.030;4.708;2022-08-19T02:24:23;38;35;
53678;PMS5003;40119;52.030;4.708;2022-08-19T02:26:27;34;34;
53678;PMS5003;40119;52.030;4.708;2022-08-19T02:28:32;39;34;
53678;PMS5003;40119;52.030;4.708;2022-08-19T02:30:36;51;45;
53678;PMS5003;40119;52.030;4.708;2022-08-19T02:32:46;36;34;
53678;PMS5003;40119;52.030;4.708;2022-08-19T02:34:50;37;35;
53678;PMS5003;40119;52.030;4.708;2022-08-19T02:36:54;40;40;
53678;PMS5003;40119;52.030;4.708;2022-08-19T02:38:59;32;32;
53678;PMS5003;40119;52.030;4.708;2022-08-19T02:41:04;41;34;
53678;PMS5003;40119;52.030;4.708;2022-08-19T02:43:11;34;32;
53678;PMS5003;40119;52.030;4.708;2022-08-19T02:45:16;42;40;
53678;PMS5003;40119;52.030;4.708;2022-08-19T02:47:21;41;36;
53678;PMS5003;40119;52.030;4.708;2022-08-19T02:49:25;43;41;
53678;PMS5003;40119;52.030;4.708;2022-08-19T02:51:31;40;39;
53678;PMS5003;40119;52.030;4.708;2022-08-19T02:53:38;41;36;
53678;PMS5003;40119;52.030;4.708;2022-08-19T02:55:43;38;35;
53678;PMS5003;40119;52.030;4.708;2022-08-19T02:57:49;43;41;
53678;PMS5003;40119;52.030;4.708;2022-08-19T02:59:53;36;31;
53678;PMS5003;40119;52.030;4.708;2022-08-19T03:01:58;49;42;
53678;PMS5003;40119;52.030;4.708;2022-08-19T03:04:03;41;38;
53678;PMS5003;40119;52.030;4.708;2022-08-19T03:06:10;41;38;
53678;PMS5003;40119;52.030;4.708;2022-08-19T03:08:16;44;43;
53678;PMS5003;40119;52.030;4.708;2022-08-19T03:10:22;50;42;
53678;PMS5003;40119;52.030;4.708;2022-08-19T03:12:26;44;38;
53678;PMS5003;40119;52.030;4.708;2022-08-19T03:14:30;40;38;
53678;PMS5003;40119;52.030;4.708;2022-08-19T03:16:43;36;34;
53678;PMS5003;40119;52.030;4.708;2022-08-19T03:18:51;36;35;
53678;PMS5003;40119;52.030;4.708;2022-08-19T03:20:57;38;34;
53678;PMS5003;40119;52.030;4.708;2022-08-19T03:23:02;29;26;
53678;PMS5003;40119;52.030;4.708;2022-08-19T03:25:06;37;35;
53678;PMS5003;40119;52.030;4.708;2022-08-19T03:27:11;41;38;
53678;PMS5003;40119;52.030;4.708;2022-08-19T03:29:17;39;34;
53678;PMS5003;40119;52.030;4.708;2022-08-19T03:31:23;35;33;
53678;PMS5003;40119;52.030;4.708;2022-08-19T03:33:29;36;34;
53678;PMS5003;40119;52.030;4.708;2022-08-19T03:35:34;24;23;
53678;PMS5003;40119;52.030;4.708;2022-08-19T03:37:44;25;21;
53678;PMS5003;40119;52.030;4.708;2022-08-19T03:39:48;23;22;
53678;PMS5003;40119;52.030;4.708;2022-08-19T03:41:53;29;25;
53678;PMS5003;40119;52.030;4.708;2022-08-19T03:43:58;25;23;
53678;PMS5003;40119;52.030;4.708;2022-08-19T03:46:04;26;24;
53678;PMS5003;40119;52.030;4.708;2022-08-19T03:48:10;30;26;
53678;PMS5003;40119;52.030;4.708;2022-08-19T03:50:15;26;22;
53678;PMS5003;40119;52.030;4.708;2022-08-19T03:52:20;22;20;
53678;PMS5003;40119;52.030;4.708;2022-08-19T03:54:24;21;19;
53678;PMS5003;40119;52.030;4.708;2022-08-19T03:56:29;20;20;
53678;PMS5003;40119;52.030;4.708;2022-08-19T03:58:34;21;20;
53678;PMS5003;40119;52.030;4.708;2022-08-19T04:00:41;24;21;
53678;PMS5003;40119;52.030;4.708;2022-08-19T04:02:45;18;18;
53678;PMS5003;40119;52.030;4.708;2022-08-19T04:04:50;16;14;
53678;PMS5003;40119;52.030;4.708;2022-08-19T04:06:57;14;14;
53678;PMS5003;40119;52.030;4.708;2022-08-19T04:09:08;17;14;
53678;PMS5003;40119;52.030;4.708;2022-08-19T04:11:15;16;16;
53678;PMS5003;40119;52.030;4.708;2022-08-19T04:13:21;15;15;
53678;PMS5003;40119;52.030;4.708;2022-08-19T04:15:26;17;14;
53678;PMS5003;40119;52.030;4.708;2022-08-19T04:17:31;14;14;
53678;PMS5003;40119;52.030;4.708;2022-08-19T04:19:35;16;15;
53678;PMS5003;40119;52.030;4.708;2022-08-19T04:21:40;15;15;
53678;PMS5003;40119;52.030;4.708;2022-08-19T04:23:47;17;16;
53678;PMS5003;40119;52.030;4.708;2022-08-19T04:25:52;15;15;
53678;PMS5003;40119;52.030;4.708;2022-08-19T04:27:58;16;16;
53678;PMS5003;40119;52.030;4.708;2022-08-19T04:30:03;18;17;
53678;PMS5003;40119;52.030;4.708;2022-08-19T04:32:08;17;17;
53678;PMS5003;40119;52.030;4.708;2022-08-19T04:34:14;23;22;
53678;PMS5003;40119;52.030;4.708;2022-08-19T04:36:22;15;14;
53678;PMS5003;40119;52.030;4.708;2022-08-19T04:38:29;21;21;
53678;PMS5003;40119;52.030;4.708;2022-08-19T04:40:34;19;19;
53678;PMS5003;40119;52.030;4.708;2022-08-19T04:42:43;18;18;
53678;PMS5003;40119;52.030;4.708;2022-08-19T04:44:47;21;20;
53678;PMS5003;40119;52.030;4.708;2022-08-19T04:46:52;16;16;
53678;PMS5003;40119;52.030;4.708;2022-08-19T04:48:56;21;20;
53678;PMS5003;40119;52.030;4.708;2022-08-19T04:51:05;28;25;
53678;PMS5003;40119;52.030;4.708;2022-08-19T04:53:11;24;23;
53678;PMS5003;40119;52.030;4.708;2022-08-19T04:55:16;26;24;
53678;PMS5003;40119;52.030;4.708;2022-08-19T04:57:21;27;25;
53678;PMS5003;40119;52.030;4.708;2022-08-19T04:59:25;28;28;
53678;PMS5003;40119;52.030;4.708;2022-08-19T05:01:30;34;29;
53678;PMS5003;40119;52.030;4.708;2022-08-19T05:03:36;32;31;
53678;PMS5003;40119;52.030;4.708;2022-08-19T05:05:41;37;34;
53678;PMS5003;40119;52.030;4.708;2022-08-19T05:07:46;31;28;
53678;PMS5003;40119;52.030;4.708;2022-08-19T05:09:50;27;27;
53678;PMS5003;40119;52.030;4.708;2022-08-19T05:11:55;29;27;
53678;PMS5003;40119;52.030;4.708;2022-08-19T05:13:59;31;29;
53678;PMS5003;40119;52.030;4.708;2022-08-19T05:16:04;30;26;
53678;PMS5003;40119;52.030;4.708;2022-08-19T05:18:09;28;28;
53678;PMS5003;40119;52.030;4.708;2022-08-19T05:20:15;29;27;
53678;PMS5003;40119;52.030;4.708;2022-08-19T05:22:19;31;29;
53678;PMS5003;40119;52.030;4.708;2022-08-19T05:24:24;37;34;
53678;PMS5003;40119;52.030;4.708;2022-08-19T05:26:29;45;37;
53678;PMS5003;40119;52.030;4.708;2022-08-19T05:28:34;39;38;
53678;PMS5003;40119;52.030;4.708;2022-08-19T05:30:38;35;34;
53678;PMS5003;40119;52.030;4.708;2022-08-19T05:32:42;32;31;
53678;PMS5003;40119;52.030;4.708;2022-08-19T05:34:47;35;32;
53678;PMS5003;40119;52.030;4.708;2022-08-19T05:36:52;43;39;
53678;PMS5003;40119;52.030;4.708;2022-08-19T05:38:58;42;41;
53678;PMS5003;40119;52.030;4.708;2022-08-19T05:41:06;33;31;
53678;PMS5003;40119;52.030;4.708;2022-08-19T05:43:12;38;34;
53678;PMS5003;40119;52.030;4.708;2022-08-19T05:45:18;34;33;
53678;PMS5003;40119;52.030;4.708;2022-08-19T05:47:22;38;37;
53678;PMS5003;40119;52.030;4.708;2022-08-19T05:49:26;30;28;
53678;PMS5003;40119;52.030;4.708;2022-08-19T05:51:32;34;33;
53678;PMS5003;40119;52.030;4.708;2022-08-19T05:53:37;34;30;
53678;PMS5003;40119;52.030;4.708;2022-08-19T05:55:42;36;35;
53678;PMS5003;40119;52.030;4.708;2022-08-19T05:57:47;35;34;
53678;PMS5003;40119;52.030;4.708;2022-08-19T05:59:51;33;32;
53678;PMS5003;40119;52.030;4.708;2022-08-19T06:01:56;33;31;
53678;PMS5003;40119;52.030;4.708;2022-08-19T06:04:01;32;31;
53678;PMS5003;40119;52.030;4.708;2022-08-19T06:06:08;37;37;
53678;PMS5003;40119;52.030;4.708;2022-08-19T06:08:15;30;28;
53678;PMS5003;40119;52.030;4.708;2022-08-19T06:10:20;29;29;
53678;PMS5003;40119;52.030;4.708;2022-08-19T06:12:24;32;32;
53678;PMS5003;40119;52.030;4.708;2022-08-19T06:14:30;34;30;
53678;PMS5003;40119;52.030;4.708;2022-08-19T06:16:36;40;36;
53678;PMS5003;40119;52.030;4.708;2022-08-19T06:18:41;31;28;
53678;PMS5003;40119;52.030;4.708;2022-08-19T06:20:46;36;36;
53678;PMS5003;40119;52.030;4.708;2022-08-19T06:22:50;30;30;
53678;PMS5003;40119;52.030;4.708;2022-08-19T06:24:54;37;33;
53678;PMS5003;40119;52.030;4.708;2022-08-19T06:27:00;35;33;
53678;PMS5003;40119;52.030;4.708;2022-08-19T06:29:05;31;27;
53678;PMS5003;40119;52.030;4.708;2022-08-19T06:31:13;38;35;
53678;PMS5003;40119;52.030;4.708;2022-08-19T06:33:19;29;28;
53678;PMS5003;40119;52.030;4.708;2022-08-19T06:35:24;31;30;
53678;PMS5003;40119;52.030;4.708;2022-08-19T06:37:28;32;30;
53678;PMS5003;40119;52.030;4.708;2022-08-19T06:39:36;33;32;
53678;PMS5003;40119;52.030;4.708;2022-08-19T06:41:43;31;30;
53678;PMS5003;40119;52.030;4.708;2022-08-19T06:43:49;37;31;
53678;PMS5003;40119;52.030;4.708;2022-08-19T06:45:55;29;29;
53678;PMS5003;40119;52.030;4.708;2022-08-19T06:48:00;32;29;
53678;PMS5003;40119;52.030;4.708;2022-08-19T06:50:07;32;30;
53678;PMS5003;40119;52.030;4.708;2022-08-19T06:52:12;33;31;
53678;PMS5003;40119;52.030;4.708;2022-08-19T06:54:18;30;29;
53678;PMS5003;40119;52.030;4.708;2022-08-19T06:56:25;32;30;
53678;PMS5003;40119;52.030;4.708;2022-08-19T06:58:31;30;29;
53678;PMS5003;40119;52.030;4.708;2022-08-19T07:00:35;30;26;
53678;PMS5003;40119;52.030;4.708;2022-08-19T07:02:41;24;24;
53678;PMS5003;40119;52.030;4.708;2022-08-19T07:04:46;25;25;
53678;PMS5003;40119;52.030;4.708;2022-08-19T07:06:56;26;26;
53678;PMS5003;40119;52.030;4.708;2022-08-19T07:09:03;27;27;
53678;PMS5003;40119;52.030;4.708;2022-08-19T07:11:10;21;21;
53678;PMS5003;40119;52.030;4.708;2022-08-19T07:13:16;27;26;
53678;PMS5003;40119;52.030;4.708;2022-08-19T07:15:23;28;27;
53678;PMS5003;40119;52.030;4.708;2022-08-19T07:17:28;27;24;
53678;PMS5003;40119;52.030;4.708;2022-08-19T07:19:33;25;25;
53678;PMS5003;40119;52.030;4.708;2022-08-19T07:21:40;24;23;
53678;PMS5003;40119;52.030;4.708;2022-08-19T07:23:45;22;21;
53678;PMS5003;40119;52.030;4.708;2022-08-19T07:25:51;24;24;
53678;PMS5003;40119;52.030;4.708;2022-08-19T07:27:55;21;21;
53678;PMS5003;40119;52.030;4.708;2022-08-19T07:30:00;23;21;
53678;PMS5003;40119;52.030;4.708;2022-08-19T07:32:05;25;24;
53678;PMS5003;40119;52.030;4.708;2022-08-19T07:34:10;23;23;
53678;PMS5003;40119;52.030;4.708;2022-08-19T07:36:17;21;21;
53678;PMS5003;40119;52.030;4.708;2022-08-19T07:38:23;24;24;
53678;PMS5003;40119;52.030;4.708;2022-08-19T07:40:28;24;23;
53678;PMS5003;40119;52.030;4.708;2022-08-19T07:42:35;26;24;
53678;PMS5003;40119;52.030;4.708;2022-08-19T07:44:40;20;20;
53678;PMS5003;40119;52.030;4.708;2022-08-19T07:48:42;27;25;
53678;PMS5003;40119;52.030;4.708;2022-08-19T07:51:03;26;26;
53678;PMS5003;40119;52.030;4.708;2022-08-19T07:53:10;25;25;
53678;PMS5003;40119;52.030;4.708;2022-08-19T07:55:22;30;26;
53678;PMS5003;40119;52.030;4.708;2022-08-19T08:02:26;26;25;
53678;PMS5003;40119;52.030;4.708;2022-08-19T08:07:49;24;23;
53678;PMS5003;40119;52.030;4.708;2022-08-19T08:09:55;23;23;
53678;PMS5003;40119;52.030;4.708;2022-08-19T08:12:01;22;21;
53678;PMS5003;40119;52.030;4.708;2022-08-19T08:14:12;23;22;
53678;PMS5003;40119;52.030;4.708;2022-08-19T08:16:18;28;23;
53678;PMS5003;40119;52.030;4.708;2022-08-19T08:18:23;23;21;
53678;PMS5003;40119;52.030;4.708;2022-08-19T08:20:29;26;24;
53678;PMS5003;40119;52.030;4.708;2022-08-19T08:23:05;26;25;
53678;PMS5003;40119;52.030;4.708;2022-08-19T08:25:17;30;26;
53678;PMS5003;40119;52.030;4.708;2022-08-19T08:27:25;27;27;
53678;PMS5003;40119;52.030;4.708;2022-08-19T08:29:30;24;24;
53678;PMS5003;40119;52.030;4.708;2022-08-19T08:31:35;22;22;
53678;PMS5003;40119;52.030;4.708;2022-08-19T08:33:40;26;24;
53678;PMS5003;40119;52.030;4.708;2022-08-19T08:35:45;26;23;
53678;PMS5003;40119;52.030;4.708;2022-08-19T08:37:51;34;33;
53678;PMS5003;40119;52.030;4.708;2022-08-19T08:39:57;37;32;
53678;PMS5003;40119;52.030;4.708;2022-08-19T08:42:09;40;38;
53678;PMS5003;40119;52.030;4.708;2022-08-19T08:44:20;36;33;
53678;PMS5003;40119;52.030;4.708;2022-08-19T08:46:41;37;35;
53678;PMS5003;40119;52.030;4.708;2022-08-19T08:48:51;37;34;
53678;PMS5003;40119;52.030;4.708;2022-08-19T08:51:02;37;35;
53678;PMS5003;40119;52.030;4.708;2022-08-19T08:53:09;38;33;
53678;PMS5003;40119;52.030;4.708;2022-08-19T08:55:18;37;35;
53678;PMS5003;40119;52.030;4.708;2022-08-19T08:57:26;35;33;
53678;PMS5003;40119;52.030;4.708;2022-08-19T08:59:36;36;34;
53678;PMS5003;40119;52.030;4.708;2022-08-19T09:01:43;46;42;
53678;PMS5003;40119;52.030;4.708;2022-08-19T09:03:47;42;38;
53678;PMS5003;40119;52.030;4.708;2022-08-19T09:05:55;44;39;
53678;PMS5003;40119;52.030;4.708;2022-08-19T09:08:05;36;36;
53678;PMS5003;40119;52.030;4.708;2022-08-19T09:10:18;41;39;
53678;PMS5003;40119;52.030;4.708;2022-08-19T09:12:31;43;40;
53678;PMS5003;40119;52.030;4.708;2022-08-19T09:14:47;43;38;
53678;PMS5003;40119;52.030;4.708;2022-08-19T09:17:07;40;39;
53678;PMS5003;40119;52.030;4.708;2022-08-19T09:19:13;45;40;
53678;PMS5003;40119;52.030;4.708;2022-08-19T09:21:19;42;38;
53678;PMS5003;40119;52.030;4.708;2022-08-19T09:23:24;41;39;
53678;PMS5003;40119;52.030;4.708;2022-08-19T09:25:29;44;41;
53678;PMS5003;40119;52.030;4.708;2022-08-19T09:27:33;38;34;
53678;PMS5003;40119;52.030;4.708;2022-08-19T09:29:39;47;47;
53678;PMS5003;40119;52.030;4.708;2022-08-19T09:31:44;49;48;
53678;PMS5003;40119;52.030;4.708;2022-08-19T09:33:48;49;44;
53678;PMS5003;40119;52.030;4.708;2022-08-19T09:36:01;47;44;
53678;PMS5003;40119;52.030;4.708;2022-08-19T09:38:07;52;49;
53678;PMS5003;40119;52.030;4.708;2022-08-19T09:40:12;45;41;
53678;PMS5003;40119;52.030;4.708;2022-08-19T09:42:17;45;41;
53678;PMS5003;40119;52.030;4.708;2022-08-19T09:44:22;43;39;
53678;PMS5003;40119;52.030;4.708;2022-08-19T09:46:27;50;47;
53678;PMS5003;40119;52.030;4.708;2022-08-19T09:48:33;47;44;
53678;PMS5003;40119;52.030;4.708;2022-08-19T09:50:39;47;45;
53678;PMS5003;40119;52.030;4.708;2022-08-19T09:52:44;53;48;
53678;PMS5003;40119;52.030;4.708;2022-08-19T09:54:51;47;42;
53678;PMS5003;40119;52.030;4.708;2022-08-19T09:56:57;51;45;
53678;PMS5003;40119;52.030;4.708;2022-08-19T09:59:02;50;42;
53678;PMS5003;40119;52.030;4.708;2022-08-19T10:01:07;40;40;
53678;PMS5003;40119;52.030;4.708;2022-08-19T10:03:12;48;44;
53678;PMS5003;40119;52.030;4.708;2022-08-19T10:05:19;45;41;
53678;PMS5003;40119;52.030;4.708;2022-08-19T10:07:24;53;47;
53678;PMS5003;40119;52.030;4.708;2022-08-19T10:09:28;41;39;
53678;PMS5003;40119;52.030;4.708;2022-08-19T10:11:32;39;36;
53678;PMS5003;40119;52.030;4.708;2022-08-19T10:13:38;35;34;
53678;PMS5003;40119;52.030;4.708;2022-08-19T10:15:48;43;40;
53678;PMS5003;40119;52.030;4.708;2022-08-19T10:17:53;42;39;
53678;PMS5003;40119;52.030;4.708;2022-08-19T10:19:58;40;38;
53678;PMS5003;40119;52.030;4.708;2022-08-19T10:22:03;47;41;
53678;PMS5003;40119;52.030;4.708;2022-08-19T10:24:08;41;34;
53678;PMS5003;40119;52.030;4.708;2022-08-19T10:26:14;42;39;
53678;PMS5003;40119;52.030;4.708;2022-08-19T10:28:23;48;41;
53678;PMS5003;40119;52.030;4.708;2022-08-19T10:30:28;50;44;
53678;PMS5003;40119;52.030;4.708;2022-08-19T10:32:37;45;43;
53678;PMS5003;40119;52.030;4.708;2022-08-19T10:34:42;39;38;
53678;PMS5003;40119;52.030;4.708;2022-08-19T10:36:46;49;41;
53678;PMS5003;40119;52.030;4.708;2022-08-19T10:38:51;46;42;
53678;PMS5003;40119;52.030;4.708;2022-08-19T10:40:57;38;37;
53678;PMS5003;40119;52.030;4.708;2022-08-19T10:43:10;39;39;
53678;PMS5003;40119;52.030;4.708;2022-08-19T10:45:15;43;41;
53678;PMS5003;40119;52.030;4.708;2022-08-19T10:47:20;37;35;
53678;PMS5003;40119;52.030;4.708;2022-08-19T10:49:26;39;37;
53678;PMS5003;40119;52.030;4.708;2022-08-19T10:51:30;44;41;
53678;PMS5003;40119;52.030;4.708;2022-08-19T10:53:35;45;43;
53678;PMS5003;40119;52.030;4.708;2022-08-19T10:55:40;37;35;
53678;PMS5003;40119;52.030;4.708;2022-08-19T10:57:49;38;34;
53678;PMS5003;40119;52.030;4.708;2022-08-19T10:59:54;40;38;
53678;PMS5003;40119;52.030;4.708;2022-08-19T11:02:00;40;37;
53678;PMS5003;40119;52.030;4.708;2022-08-19T11:04:06;38;34;
53678;PMS5003;40119;52.030;4.708;2022-08-19T11:06:12;32;31;
53678;PMS5003;40119;52.030;4.708;2022-08-19T11:08:17;42;37;
53678;PMS5003;40119;52.030;4.708;2022-08-19T11:10:21;39;35;
53678;PMS5003;40119;52.030;4.708;2022-08-19T11:12:26;37;34;
53678;PMS5003;40119;52.030;4.708;2022-08-19T11:14:36;42;40;
53678;PMS5003;40119;52.030;4.708;2022-08-19T11:16:46;36;35;
53678;PMS5003;40119;52.030;4.708;2022-08-19T11:18:52;43;41;
53678;PMS5003;40119;52.030;4.708;2022-08-19T11:21:05;42;41;
53678;PMS5003;40119;52.030;4.708;2022-08-19T11:23:16;36;35;
53678;PMS5003;40119;52.030;4.708;2022-08-19T11:25:20;44;36;
53678;PMS5003;40119;52.030;4.708;2022-08-19T11:27:25;41;40;
53678;PMS5003;40119;52.030;4.708;2022-08-19T11:29:30;45;40;
53678;PMS5003;40119;52.030;4.708;2022-08-19T11:31:35;44;43;
53678;PMS5003;40119;52.030;4.708;2022-08-19T11:33:46;51;44;
53678;PMS5003;40119;52.030;4.708;2022-08-19T11:35:57;48;46;
53678;PMS5003;40119;52.030;4.708;2022-08-19T11:38:07;39;37;
53678;PMS5003;40119;52.030;4.708;2022-08-19T11:40:13;46;40;
53678;PMS5003;40119;52.030;4.708;2022-08-19T11:42:19;47;42;
53678;PMS5003;40119;52.030;4.708;2022-08-19T11:44:23;50;43;
53678;PMS5003;40119;52.030;4.708;2022-08-19T11:46:28;43;41;
53678;PMS5003;40119;52.030;4.708;2022-08-19T11:48:33;42;41;
53678;PMS5003;40119;52.030;4.708;2022-08-19T11:50:39;53;48;
53678;PMS5003;40119;52.030;4.708;2022-08-19T11:52:43;48;45;
53678;PMS5003;40119;52.030;4.708;2022-08-19T11:54:53;52;45;
53678;PMS5003;40119;52.030;4.708;2022-08-19T11:56:58;47;44;
53678;PMS5003;40119;52.030;4.708;2022-08-19T11:59:02;54;48;
53678;PMS5003;40119;52.030;4.708;2022-08-19T12:01:08;68;56;
53678;PMS5003;40119;52.030;4.708;2022-08-19T12:03:14;56;53;
53678;PMS5003;40119;52.030;4.708;2022-08-19T12:05:19;55;52;
53678;PMS5003;40119;52.030;4.708;2022-08-19T12:07:25;58;51;
53678;PMS5003;40119;52.030;4.708;2022-08-19T12:09:35;51;51;
53678;PMS5003;40119;52.030;4.708;2022-08-19T12:11:41;64;58;
53678;PMS5003;40119;52.030;4.708;2022-08-19T12:13:46;62;57;
53678;PMS5003;40119;52.030;4.708;2022-08-19T12:15:50;60;48;
53678;PMS5003;40119;52.030;4.708;2022-08-19T12:17:59;58;51;
53678;PMS5003;40119;52.030;4.708;2022-08-19T12:20:04;60;55;
53678;PMS5003;40119;52.030;4.708;2022-08-19T12:22:17;62;52;
53678;PMS5003;40119;52.030;4.708;2022-08-19T12:24:26;65;58;
53678;PMS5003;40119;52.030;4.708;2022-08-19T12:26:34;59;52;
53678;PMS5003;40119;52.030;4.708;2022-08-19T12:28:39;55;52;
53678;PMS5003;40119;52.030;4.708;2022-08-19T12:30:44;70;59;
53678;PMS5003;40119;52.030;4.708;2022-08-19T12:32:54;64;58;
53678;PMS5003;40119;52.030;4.708;2022-08-19T12:34:59;60;56;
53678;PMS5003;40119;52.030;4.708;2022-08-19T12:37:05;65;58;
53678;PMS5003;40119;52.030;4.708;2022-08-19T12:39:11;74;70;
53678;PMS5003;40119;52.030;4.708;2022-08-19T12:41:16;66;59;
53678;PMS5003;40119;52.030;4.708;2022-08-19T12:43:22;69;62;
53678;PMS5003;40119;52.030;4.708;2022-08-19T12:45:33;71;62;
53678;PMS5003;40119;52.030;4.708;2022-08-19T12:47:38;68;62;
53678;PMS5003;40119;52.030;4.708;2022-08-19T12:49:48;66;63;
53678;PMS5003;40119;52.030;4.708;2022-08-19T12:51:52;73;65;
53678;PMS5003;40119;52.030;4.708;2022-08-19T12:53:57;73;65;
53678;PMS5003;40119;52.030;4.708;2022-08-19T12:56:02;73;66;
53678;PMS5003;40119;52.030;4.708;2022-08-19T12:58:06;75;68;
53678;PMS5003;40119;52.030;4.708;2022-08-19T13:00:13;74;68;
53678;PMS5003;40119;52.030;4.708;2022-08-19T13:02:20;70;66;
53678;PMS5003;40119;52.030;4.708;2022-08-19T13:04:25;65;61;
53678;PMS5003;40119;52.030;4.708;2022-08-19T13:06:45;65;58;
53678;PMS5003;40119;52.030;4.708;2022-08-19T13:08:49;70;60;
53678;PMS5003;40119;52.030;4.708;2022-08-19T13:10:54;72;67;
53678;PMS5003;40119;52.030;4.708;2022-08-19T13:12:58;70;66;
53678;PMS5003;40119;52.030;4.708;2022-08-19T13:15:03;73;65;
53678;PMS5003;40119;52.030;4.708;2022-08-19T13:17:35;73;63;
53678;PMS5003;40119;52.030;4.708;2022-08-19T13:19:39;70;62;
53678;PMS5003;40119;52.030;4.708;2022-08-19T13:21:44;65;61;
53678;PMS5003;40119;52.030;4.708;2022-08-19T13:23:49;62;57;
53678;PMS5003;40119;52.030;4.708;2022-08-19T13:25:56;68;62;
53678;PMS5003;40119;52.030;4.708;2022-08-19T13:28:01;66;60;
53678;PMS5003;40119;52.030;4.708;2022-08-19T13:30:07;61;57;
53678;PMS5003;40119;52.030;4.708;2022-08-19T13:32:21;66;57;
53678;PMS5003;40119;52.030;4.708;2022-08-19T13:34:27;67;59;
53678;PMS5003;40119;52.030;4.708;2022-08-19T13:36:33;61;58;
53678;PMS5003;40119;52.030;4.708;2022-08-19T13:38:40;73;65;
53678;PMS5003;40119;52.030;4.708;2022-08-19T13:40:45;79;70;
53678;PMS5003;40119;52.030;4.708;2022-08-19T13:42:50;79;72;
53678;PMS5003;40119;52.030;4.708;2022-08-19T13:44:57;71;65;
53678;PMS5003;40119;52.030;4.708;2022-08-19T13:47:03;78;67;
53678;PMS5003;40119;52.030;4.708;2022-08-19T13:49:09;65;60;
53678;PMS5003;40119;52.030;4.708;2022-08-19T13:51:20;69;63;
53678;PMS5003;40119;52.030;4.708;2022-08-19T13:53:25;74;66;
53678;PMS5003;40119;52.030;4.708;2022-08-19T13:55:30;77;64;
53678;PMS5003;40119;52.030;4.708;2022-08-19T13:57:35;72;63;
53678;PMS5003;40119;52.030;4.708;2022-08-19T13:59:40;71;67;
53678;PMS5003;40119;52.030;4.708;2022-08-19T14:01:44;72;66;
53678;PMS5003;40119;52.030;4.708;2022-08-19T14:03:49;64;62;
53678;PMS5003;40119;52.030;4.708;2022-08-19T14:05:59;77;69;
53678;PMS5003;40119;52.030;4.708;2022-08-19T14:08:04;66;59;
53678;PMS5003;40119;52.030;4.708;2022-08-19T14:10:11;70;59;